Time;durP1;ratioP1;P1;durP2;ratioP2;P2;SDS_P1;SDS_P2;PMS_P1;PMS_P2;Temp;Humidity;BMP_temperature;BMP_pressure;BME280_temperature;BME280_humidity;BME280_pressure;Samples;Min_cycle;Max_cycle;Signal;HPM_P1;HPM_P2
2022/04/26 03:36:10;;;;;;;8.43;2.47;;;;;;;19.04;57.39;99891.63;5065539;28;20481;-65
2022/04/26 03:38:43;;;;;;;4.47;2.50;;;;;;;19.05;57.25;99899.00;5092343;28;20497;-65
2022/04/26 03:41:09;;;;;;;4.70;2.60;;;;;;;19.03;57.24;99904.28;5071351;28;20456;-65
2022/04/26 03:43:34;;;;;;;3.67;2.40;;;;;;;19.03;57.40;99892.03;5091984;28;20428;-65
2022/04/26 03:45:59;;;;;;;3.30;2.07;;;;;;;19.07;57.35;99895.75;5091657;28;20251;-65
2022/04/26 03:48:25;;;;;;;4.03;2.20;;;;;;;19.05;57.15;99901.00;5091775;28;20657;-65
2022/04/26 03:50:50;;;;;;;4.20;1.87;;;;;;;19.02;57.41;99902.63;5088280;28;20573;-65
2022/04/26 03:53:16;;;;;;;6.60;2.40;;;;;;;19.02;57.26;99894.03;5091745;28;20198;-65
2022/04/26 03:55:41;;;;;;;8.53;2.30;;;;;;;19.01;57.46;99906.72;5092075;28;20170;-65
2022/04/26 03:58:07;;;;;;;4.17;2.87;;;;;;;19.03;57.24;99901.44;5073720;28;20295;-65
2022/04/26 04:00:32;;;;;;;6.10;2.60;;;;;;;19.01;57.39;99898.13;5091852;28;20209;-65
2022/04/26 04:02:58;;;;;;;3.40;2.13;;;;;;;19.02;57.47;99899.75;5091445;28;20591;-65
2022/04/26 04:05:23;;;;;;;5.97;2.10;;;;;;;19.05;57.35;99903.88;5089261;28;20182;-65
2022/04/26 04:07:49;;;;;;;6.47;2.67;;;;;;;19.03;57.67;99915.75;5071271;28;20218;-65
2022/04/26 04:10:14;;;;;;;6.07;2.27;;;;;;;19.03;57.23;99921.47;5084407;28;20236;-65
2022/04/26 04:12:39;;;;;;;3.40;2.10;;;;;;;19.05;57.46;99907.56;5071782;28;20181;-65
2022/04/26 04:15:05;;;;;;;4.70;2.73;;;;;;;19.04;57.47;99911.66;5090729;28;20162;-65
2022/04/26 04:17:31;;;;;;;3.80;2.10;;;;;;;19.05;57.62;99907.56;5090797;28;20205;-65
2022/04/26 04:19:56;;;;;;;3.83;1.97;;;;;;;19.04;57.47;99908.78;5091362;28;20821;-65
2022/04/26 04:22:22;;;;;;;2.90;1.97;;;;;;;19.04;57.05;99913.69;5091711;28;20170;-65
2022/04/26 04:24:47;;;;;;;3.40;2.17;;;;;;;19.03;57.56;99912.88;5091481;28;20699;-65
2022/04/26 04:27:13;;;;;;;3.73;2.10;;;;;;;19.05;57.23;99912.47;5091494;28;20235;-65
2022/04/26 04:29:38;;;;;;;3.03;2.00;;;;;;;19.07;57.10;99925.16;5091485;28;20276;-65
2022/04/26 04:32:04;;;;;;;3.33;2.07;;;;;;;19.04;57.54;99913.69;5090908;28;20223;-65
2022/04/26 04:34:29;;;;;;;4.80;2.50;;;;;;;19.03;57.43;99930.03;5091404;28;20564;-65
2022/04/26 04:36:54;;;;;;;5.10;2.37;;;;;;;19.03;57.70;99927.19;5075920;28;20194;-65
2022/04/26 04:39:20;;;;;;;4.30;2.60;;;;;;;19.04;57.14;99925.97;5070992;28;20211;-65
2022/04/26 04:41:47;;;;;;;4.40;2.10;;;;;;;19.03;57.53;99930.03;5071097;28;20285;-65
2022/04/26 04:44:12;;;;;;;4.40;2.30;;;;;;;19.02;57.15;99939.81;5071230;28;20175;-65
2022/04/26 04:46:37;;;;;;;4.47;2.90;;;;;;;19.02;57.13;99942.69;5070873;28;20444;-65
2022/04/26 04:49:03;;;;;;;2.57;1.63;;;;;;;19.01;57.31;99948.81;5071030;28;20498;-65
2022/04/26 04:51:29;;;;;;;3.57;2.20;;;;;;;19.03;57.62;99952.94;5071004;28;20179;-65
2022/04/26 04:53:54;;;;;;;3.90;2.33;;;;;;;19.03;57.26;99964.38;5071013;28;20554;-65
2022/04/26 04:56:20;;;;;;;3.50;1.80;;;;;;;19.03;57.33;99954.97;5071927;28;20539;-65
2022/04/26 04:58:46;;;;;;;4.40;2.50;;;;;;;19.05;57.21;99956.22;5074713;28;20179;-65
2022/04/26 05:01:12;;;;;;;4.30;2.30;;;;;;;19.03;57.29;99969.25;5056463;28;20552;-65
2022/04/26 05:03:37;;;;;;;3.87;2.27;;;;;;;19.01;57.49;99961.06;5074498;28;20459;-65
2022/04/26 05:06:02;;;;;;;5.43;2.20;;;;;;;19.01;57.56;99966.78;5074597;28;20179;-65
2022/04/26 05:08:28;;;;;;;4.00;2.30;;;;;;;19.00;57.40;99959.44;5074281;28;20753;-65
2022/04/26 05:10:53;;;;;;;3.93;2.30;;;;;;;19.01;57.66;99969.66;5074607;28;20160;-65
2022/04/26 05:13:19;;;;;;;2.73;1.83;;;;;;;19.02;57.37;99971.28;5056639;28;20692;-65
2022/04/26 05:15:45;;;;;;;4.57;2.00;;;;;;;19.03;57.06;99975.81;5056284;28;20179;-65
2022/04/26 05:18:12;;;;;;;3.30;1.90;;;;;;;19.04;57.50;99977.47;5065838;28;20425;-65
2022/04/26 05:20:38;;;;;;;3.90;2.03;;;;;;;19.01;57.17;99978.22;5074212;28;20218;-65
2022/04/26 05:25:47;;;;;;;4.97;2.50;;;;;;;19.00;57.40;99975.75;5074260;28;20393;-65
2022/04/26 05:28:13;;;;;;;6.20;2.30;;;;;;;19.01;57.56;99978.22;5056097;28;20405;-65
2022/04/26 05:30:38;;;;;;;5.57;2.27;;;;;;;18.99;57.51;99974.97;5075764;28;20171;-65
2022/04/26 05:33:04;;;;;;;4.43;1.97;;;;;;;19.01;57.71;99983.97;5076628;28;20270;-65
2022/04/26 05:35:29;;;;;;;4.37;2.20;;;;;;;19.02;57.25;99982.75;5077277;28;20273;-65
2022/04/26 05:37:54;;;;;;;3.67;1.60;;;;;;;19.02;57.21;99990.50;5090817;28;20224;-65
2022/04/26 05:40:20;;;;;;;3.40;1.77;;;;;;;19.03;57.27;99984.41;5076160;28;20202;-65
2022/04/26 05:42:45;;;;;;;4.10;2.03;;;;;;;19.00;57.33;99993.75;5072723;28;20546;-65
2022/04/26 05:45:11;;;;;;;4.27;2.10;;;;;;;19.00;57.60;99992.94;5094093;28;20244;-65
2022/04/26 05:47:45;;;;;;;3.53;1.70;;;;;;;19.02;57.08;99985.59;5094125;28;20584;-65
2022/04/26 05:50:11;;;;;;;3.17;1.77;;;;;;;19.01;57.48;99995.41;5094106;28;20166;-65
2022/04/26 05:52:37;;;;;;;4.77;2.23;;;;;;;19.03;57.37;100001.56;5094068;28;20502;-65
2022/04/26 05:55:04;;;;;;;3.30;2.23;;;;;;;19.02;57.42;99999.91;5094087;28;20202;-65
2022/04/26 05:57:30;;;;;;;8.13;2.40;;;;;;;19.01;56.93;100003.19;5075376;28;20717;-65
2022/04/26 05:59:56;;;;;;;3.70;2.03;;;;;;;19.02;57.34;100007.69;5093643;28;20452;-65
2022/04/26 06:02:21;;;;;;;3.53;2.07;;;;;;;19.02;57.41;100008.47;5090418;28;20428;-66
2022/04/26 06:04:47;;;;;;;4.73;2.67;;;;;;;19.09;56.90;100005.72;5079778;28;20199;-65
2022/04/26 06:07:12;;;;;;;4.90;3.57;;;;;;;19.11;57.00;100006.13;5076528;28;20219;-65
2022/04/26 06:09:38;;;;;;;7.67;5.53;;;;;;;19.26;56.87;100010.84;5074184;28;20195;-65
2022/04/26 06:12:04;;;;;;;16.73;9.87;;;;;;;19.54;58.76;100013.16;5051687;28;20179;-66
2022/04/26 06:14:30;;;;;;;23.80;10.57;;;;;;;19.69;59.26;100012.06;5055494;28;20179;-66
2022/04/26 06:16:55;;;;;;;19.10;8.00;;;;;;;19.59;57.80;100018.53;5036737;28;20423;-66
2022/04/26 06:19:21;;;;;;;10.60;6.90;;;;;;;19.49;57.32;100013.50;5052614;28;20172;-66
2022/04/26 06:21:46;;;;;;;11.33;7.00;;;;;;;19.38;57.62;100019.16;5070640;28;20159;-65
2022/04/26 06:24:12;;;;;;;12.90;6.60;;;;;;;19.34;57.68;100024.00;5071873;28;20206;-65
2022/04/26 06:26:37;;;;;;;9.13;6.13;;;;;;;19.43;57.20;100021.66;5067535;28;20222;-65
2022/04/26 06:29:03;;;;;;;11.27;6.07;;;;;;;19.42;56.83;100022.06;5070042;28;20167;-65
2022/04/26 06:31:28;;;;;;;12.33;5.73;;;;;;;19.42;56.64;100027.78;5070041;28;20254;-65
2022/04/26 06:33:54;;;;;;;9.17;5.27;;;;;;;19.43;56.37;100024.53;5070700;28;20171;-65
2022/04/26 06:36:19;;;;;;;8.53;5.60;;;;;;;19.41;56.72;100026.94;5053189;28;20185;-66
2022/04/26 06:38:45;;;;;;;10.80;5.93;;;;;;;19.48;56.55;100027.03;5071220;28;20179;-66
2022/04/26 06:41:10;;;;;;;8.23;5.47;;;;;;;19.47;56.86;100025.34;5070954;28;20206;-66
2022/04/26 06:43:36;;;;;;;10.13;5.53;;;;;;;19.50;56.65;100026.63;5070745;28;20175;-66
2022/04/26 06:46:01;;;;;;;7.63;4.80;;;;;;;19.50;56.90;100027.44;5070935;28;20191;-66
2022/04/26 06:48:27;;;;;;;9.93;5.03;;;;;;;19.49;56.09;100031.53;5053387;28;20194;-66
2022/04/26 06:50:55;;;;;;;11.53;5.03;;;;;;;19.49;56.13;100022.09;5039177;28;20188;-66
2022/04/26 06:53:21;;;;;;;9.40;5.03;;;;;;;19.45;56.23;100026.97;5050169;28;20596;-66
2022/04/26 06:55:46;;;;;;;8.23;4.50;;;;;;;19.44;56.22;100026.16;5051159;28;20430;-66
2022/04/26 06:58:12;;;;;;;7.40;4.67;;;;;;;19.45;56.03;100027.81;5054960;28;20179;-66
2022/04/26 07:00:37;;;;;;;8.07;5.00;;;;;;;19.45;56.17;100032.69;5063907;28;20203;-65
2022/04/26 07:03:03;;;;;;;16.30;5.67;;;;;;;19.44;56.84;100037.63;5069757;28;20186;-66
2022/04/26 07:05:29;;;;;;;12.00;5.87;;;;;;;19.46;56.86;100032.31;5051836;28;20187;-66
2022/04/26 07:07:54;;;;;;;14.70;5.50;;;;;;;19.45;57.00;100027.81;5081564;28;20955;-65
2022/04/26 07:10:20;;;;;;;8.90;5.03;;;;;;;19.45;57.25;100024.94;5092196;28;20174;-65
2022/04/26 07:12:46;;;;;;;10.10;5.20;;;;;;;19.46;57.20;100017.19;5073918;28;20227;-66
2022/04/26 07:15:11;;;;;;;12.30;4.20;;;;;;;19.45;57.12;100022.09;5091755;28;20185;-65
2022/04/26 07:17:40;;;;;;;10.17;4.20;;;;;;;19.46;57.29;100029.44;5090833;28;20178;-65
2022/04/26 07:20:08;;;;;;;12.70;4.60;;;;;;;19.46;57.09;100023.72;5071539;28;20224;-65
2022/04/26 07:22:34;;;;;;;12.63;4.30;;;;;;;19.48;57.31;100029.06;5092053;28;20899;-65
2022/04/26 07:24:59;;;;;;;9.30;4.23;;;;;;;19.47;57.27;100027.41;5092558;28;20419;-65
2022/04/26 07:27:24;;;;;;;8.93;4.43;;;;;;;19.47;57.18;100030.28;5085871;28;20581;-65
2022/04/26 07:29:50;;;;;;;10.13;4.07;;;;;;;19.45;57.30;100033.53;5072796;28;20175;-65
2022/04/26 07:32:16;;;;;;;9.20;4.07;;;;;;;19.45;57.38;100033.53;5053982;28;20601;-65
2022/04/26 07:34:41;;;;;;;7.77;4.33;;;;;;;19.44;57.29;100031.06;5071127;28;20182;-66
2022/04/26 07:37:07;;;;;;;12.53;4.00;;;;;;;19.46;57.29;100028.63;5086822;28;20177;-65
2022/04/26 07:39:33;;;;;;;9.33;4.17;;;;;;;19.44;57.48;100033.91;5086733;28;20193;-65
2022/04/26 07:41:59;;;;;;;6.37;3.30;;;;;;;19.42;57.54;100030.63;5072162;28;20544;-65
2022/04/26 07:44:25;;;;;;;15.57;4.10;;;;;;;19.43;57.66;100041.69;5090475;28;20424;-65
2022/04/26 07:46:50;;;;;;;7.60;3.60;;;;;;;19.42;57.71;100040.03;5072263;28;20199;-65
2022/04/26 07:49:16;;;;;;;5.67;2.93;;;;;;;19.42;57.61;100042.91;5088030;28;20178;-66
2022/04/26 07:51:42;;;;;;;6.70;3.60;;;;;;;19.41;57.64;100038.38;5073663;28;20170;-65
2022/04/26 07:54:08;;;;;;;6.97;3.40;;;;;;;19.40;57.70;100051.06;5091846;28;20364;-65
2022/04/26 07:56:34;;;;;;;6.87;3.40;;;;;;;19.38;57.68;100044.91;5057207;28;20629;-65
2022/04/26 07:59:01;;;;;;;9.00;3.23;;;;;;;19.38;57.88;100058.41;5091773;28;20423;-65
2022/04/26 08:01:27;;;;;;;6.57;3.30;;;;;;;19.38;57.69;100064.13;5091442;28;20224;-65
2022/04/26 08:03:52;;;;;;;6.63;3.23;;;;;;;19.41;57.65;100069.88;5091368;28;20424;-65
2022/04/26 08:06:18;;;;;;;6.43;3.17;;;;;;;19.41;57.72;100071.94;5073003;28;20197;-65
2022/04/26 08:08:43;;;;;;;6.40;3.27;;;;;;;19.40;57.57;100071.09;5090145;28;20222;-65
2022/04/26 08:11:12;;;;;;;6.03;3.10;;;;;;;19.41;57.90;100071.94;5073148;28;20178;-65
2022/04/26 08:13:38;;;;;;;5.17;2.60;;;;;;;19.38;57.67;100073.56;5091576;28;20182;-65
2022/04/26 08:16:04;;;;;;;8.67;3.20;;;;;;;19.41;57.72;100075.59;5091143;28;20417;-65
2022/04/26 08:18:29;;;;;;;5.73;3.33;;;;;;;19.40;58.02;100087.44;5091459;28;20416;-65
2022/04/26 08:20:55;;;;;;;6.67;3.23;;;;;;;19.37;57.83;100077.59;5091492;28;20649;-65
2022/04/26 08:23:21;;;;;;;7.23;3.40;;;;;;;19.38;57.69;100090.72;5091560;28;20180;-65
2022/04/26 08:28:31;;;;;;;8.07;3.40;;;;;;;19.35;57.84;100100.09;5091398;28;20788;-65
2022/04/26 08:30:56;;;;;;;5.73;2.83;;;;;;;19.38;58.03;100107.06;5091663;28;20409;-65
2022/04/26 08:33:22;;;;;;;7.60;2.90;;;;;;;19.36;57.74;100112.38;5095949;28;20181;-65
2022/04/26 08:35:48;;;;;;;5.03;3.10;;;;;;;19.36;57.92;100109.50;5077037;28;20254;-65
2022/04/26 08:38:13;;;;;;;5.33;3.00;;;;;;;19.35;57.77;100108.69;5077211;28;20424;-65
2022/04/26 08:40:45;;;;;;;4.70;2.63;;;;;;;19.33;58.08;100118.88;5095300;28;20205;-65
2022/04/26 08:43:10;;;;;;;6.60;2.83;;;;;;;19.33;57.98;100119.69;5093874;28;20625;-65
2022/04/26 08:45:38;;;;;;;5.93;2.90;;;;;;;19.32;58.04;100122.94;5093971;28;20436;-65
2022/04/26 08:51:02;;;;;;;5.37;3.00;;;;;;;19.35;58.06;100120.13;5078644;28;20450;-65
2022/04/26 08:53:28;;;;;;;4.73;2.77;;;;;;;19.37;58.48;100123.41;5077812;28;20404;-65
2022/04/26 08:55:54;;;;;;;9.17;3.10;;;;;;;19.34;57.93;100129.09;5093726;28;20419;-65
2022/04/26 08:58:21;;;;;;;6.47;2.70;;;;;;;19.31;57.79;100130.69;5094969;28;20206;-65
2022/04/26 09:01:06;;;;;;;6.30;2.37;;;;;;;19.36;58.17;100143.88;5077089;28;20455;-65
2022/04/26 09:04:02;;;;;;;4.20;2.73;;;;;;;19.32;57.99;100138.06;5077212;28;20903;-65
2022/04/26 09:06:39;;;;;;;6.93;2.60;;;;;;;19.36;57.77;100136.06;5083393;28;20433;-65
2022/04/26 09:09:06;;;;;;;5.13;3.00;;;;;;;19.31;58.07;100141.34;5074825;28;20437;-65
2022/04/26 09:11:34;;;;;;;3.80;2.23;;;;;;;19.31;57.96;100139.28;5074978;28;20861;-65
2022/04/26 09:14:01;;;;;;;4.60;2.97;;;;;;;19.31;57.73;100136.41;5074405;28;20417;-65
2022/04/26 09:16:26;;;;;;;4.50;2.77;;;;;;;19.32;57.60;100135.22;5059204;28;20421;-65
2022/04/26 09:18:55;;;;;;;6.30;3.47;;;;;;;19.32;57.79;100138.06;5094630;28;20420;-65
2022/04/26 09:21:20;;;;;;;4.40;2.60;;;;;;;19.32;57.97;100132.34;5076626;28;20206;-65
2022/04/26 09:23:46;;;;;;;3.83;2.43;;;;;;;19.32;57.92;100132.34;5094809;28;20989;-65
2022/04/26 09:26:14;;;;;;;4.47;2.60;;;;;;;19.29;57.96;100136.00;5079704;28;20214;-65
2022/04/26 09:28:48;;;;;;;4.60;2.83;;;;;;;19.29;57.83;100133.13;5070797;28;20508;-65
2022/04/26 09:31:24;;;;;;;5.33;2.63;;;;;;;19.34;58.02;100129.09;5069082;28;20474;-65
2022/04/26 09:34:04;;;;;;;5.00;2.50;;;;;;;19.29;57.93;100127.41;5076356;28;20469;-65
2022/04/26 09:36:31;;;;;;;6.30;2.90;;;;;;;19.29;57.98;100133.13;5094344;28;20906;-65
2022/04/26 09:38:58;;;;;;;5.70;2.53;;;;;;;19.31;57.94;100130.69;5075343;28;20431;-66
2022/04/26 09:41:25;;;;;;;5.07;2.53;;;;;;;19.28;58.06;100131.50;5075097;28;20543;-66
2022/04/26 09:44:05;;;;;;;3.60;2.90;;;;;;;19.28;57.94;100142.94;5078586;28;20429;-65
2022/04/26 09:46:42;;;;;;;4.20;2.90;;;;;;;19.26;58.06;100131.03;5073973;28;20793;-65
2022/04/26 09:49:11;;;;;;;4.47;3.10;;;;;;;19.26;58.19;100130.25;5074396;28;20772;-65
2022/04/26 09:51:37;;;;;;;3.80;2.57;;;;;;;19.26;58.06;100131.03;5073893;28;20892;-65
2022/04/26 09:54:05;;;;;;;3.23;1.87;;;;;;;19.26;58.38;100133.09;5073722;28;20420;-65
2022/04/26 09:56:31;;;;;;;5.50;2.37;;;;;;;19.28;58.11;100142.94;5073452;28;20171;-65
2022/04/26 09:58:58;;;;;;;3.20;2.23;;;;;;;19.26;58.14;100144.56;5086139;28;20553;-65
2022/04/26 10:01:50;;;;;;;4.30;2.47;;;;;;;19.27;58.27;100146.19;5054195;28;20195;-65
2022/04/26 10:04:20;;;;;;;3.60;2.60;;;;;;;19.26;58.29;100142.50;5051307;28;20445;-65
2022/04/26 10:06:46;;;;;;;7.37;2.93;;;;;;;19.26;58.08;100145.34;5085975;28;21046;-65
2022/04/26 10:09:13;;;;;;;4.47;2.97;;;;;;;19.25;58.14;100148.59;5074284;28;20776;-65
2022/04/26 10:11:38;;;;;;;7.83;2.40;;;;;;;19.26;58.23;100150.28;5092360;28;20904;-65
2022/04/26 10:14:07;;;;;;;3.50;2.60;;;;;;;19.27;58.00;100147.00;5074822;28;20424;-65
2022/04/26 10:16:33;;;;;;;4.10;2.33;;;;;;;19.26;58.22;100151.09;5059025;28;20688;-65
2022/04/26 10:19:09;;;;;;;2.90;2.13;;;;;;;19.28;58.19;100147.84;5093501;28;20481;-65
2022/04/26 10:21:38;;;;;;;4.73;2.47;;;;;;;19.28;58.06;100147.84;5075379;28;20198;-65
2022/04/26 10:24:22;;;;;;;3.13;2.50;;;;;;;19.28;58.18;100148.69;5093117;28;20413;-65
2022/04/26 10:26:48;;;;;;;7.40;2.93;;;;;;;19.26;58.08;100156.81;5093384;28;20915;-65
2022/04/26 10:29:23;;;;;;;6.40;2.90;;;;;;;19.26;58.32;100161.72;5093377;28;20482;-65
2022/04/26 10:31:58;;;;;;;3.80;2.60;;;;;;;19.27;58.06;100149.84;5093393;28;20155;-65
2022/04/26 10:34:31;;;;;;;5.33;2.83;;;;;;;19.27;58.16;100158.44;5075775;28;20424;-65
2022/04/26 10:36:56;;;;;;;3.93;2.60;;;;;;;19.28;58.34;100153.56;5059556;28;20768;-65
2022/04/26 10:39:43;;;;;;;3.73;2.83;;;;;;;19.26;58.06;100159.66;5072635;28;20409;-65
2022/04/26 10:42:11;;;;;;;3.07;2.40;;;;;;;19.26;58.23;100165.41;5072782;28;20858;-65
2022/04/26 10:44:44;;;;;;;4.43;2.43;;;;;;;19.26;58.21;100171.13;5072904;28;20471;-65
2022/04/26 10:47:09;;;;;;;5.43;2.83;;;;;;;19.26;58.54;100168.25;5072864;28;20947;-65
2022/04/26 10:49:40;;;;;;;3.10;2.27;;;;;;;19.27;58.30;100166.22;5072779;28;20409;-65
2022/04/26 10:52:10;;;;;;;3.43;2.37;;;;;;;19.28;57.98;100165.84;5072669;28;20265;-65
2022/04/26 10:57:26;;;;;;;3.47;2.40;;;;;;;19.29;58.15;100170.34;5072649;28;20386;-65
2022/04/26 11:00:01;;;;;;;5.70;3.30;;;;;;;19.29;57.96;100178.09;5072666;28;20467;-65
2022/04/26 11:02:28;;;;;;;4.40;2.17;;;;;;;19.28;58.34;100177.28;5055163;28;20440;-65
2022/04/26 11:05:04;;;;;;;4.73;2.50;;;;;;;19.29;58.36;100183.81;5071228;28;20908;-65
2022/04/26 11:07:29;;;;;;;3.50;2.40;;;;;;;19.27;58.33;100178.47;5072313;28;20491;-65
2022/04/26 11:09:56;;;;;;;4.07;2.43;;;;;;;19.29;58.25;100175.25;5054528;28;20414;-65
2022/04/26 11:12:40;;;;;;;5.30;2.93;;;;;;;19.32;58.09;100178.13;5072295;28;20174;-65
2022/04/26 11:15:07;;;;;;;3.83;2.27;;;;;;;19.29;57.87;100173.22;5072281;28;20808;-65
2022/04/26 11:17:34;;;;;;;3.90;2.33;;;;;;;19.28;58.22;100176.47;5084043;28;20506;-65
2022/04/26 11:20:00;;;;;;;2.93;2.13;;;;;;;19.28;57.99;100180.16;5092511;28;20458;-65
2022/04/26 11:22:27;;;;;;;4.37;2.53;;;;;;;19.29;58.18;100184.66;5092412;28;20899;-65
2022/04/26 11:28:00;;;;;;;3.30;2.20;;;;;;;19.34;57.98;100177.75;5075863;28;20405;-65
2022/04/26 11:30:29;;;;;;;3.60;2.60;;;;;;;19.33;57.81;100179.81;5071951;28;20390;-65
2022/04/26 11:32:56;;;;;;;3.23;2.23;;;;;;;19.32;57.99;100178.13;5071863;28;20570;-65
2022/04/26 11:35:21;;;;;;;4.30;2.93;;;;;;;19.31;58.17;100176.50;5056517;28;20420;-65
2022/04/26 11:37:48;;;;;;;4.37;2.63;;;;;;;19.31;58.10;100181.41;5092103;28;20951;-65
2022/04/26 11:40:27;;;;;;;2.43;1.90;;;;;;;19.33;58.07;100190.44;5088899;28;20213;-65
2022/04/26 11:42:54;;;;;;;3.17;2.10;;;;;;;19.32;58.08;100188.78;5092006;28;20566;-65
2022/04/26 11:45:21;;;;;;;2.87;2.23;;;;;;;19.34;57.83;100192.06;5074039;28;20420;-65
2022/04/26 11:47:51;;;;;;;3.20;2.40;;;;;;;19.36;57.90;100198.25;5092046;28;20503;-65
2022/04/26 11:50:17;;;;;;;3.67;2.10;;;;;;;19.37;57.67;100206.44;5091699;28;20946;-65
2022/04/26 11:52:43;;;;;;;3.30;2.10;;;;;;;19.35;57.95;100210.88;5091874;28;20420;-65
2022/04/26 11:55:20;;;;;;;5.43;2.27;;;;;;;19.34;58.06;100207.22;5092164;28;20425;-65
2022/04/26 11:57:48;;;;;;;4.80;2.50;;;;;;;19.31;57.99;100212.91;5091830;28;20423;-65
2022/04/26 12:00:18;;;;;;;3.00;2.10;;;;;;;19.30;58.13;100217.78;5073641;28;20452;-65
2022/04/26 12:02:45;;;;;;;3.37;2.20;;;;;;;19.31;58.08;100215.78;5091616;28;20424;-65
2022/04/26 12:05:11;;;;;;;4.90;2.87;;;;;;;19.29;58.29;100236.19;5091231;28;20478;-65
2022/04/26 12:07:37;;;;;;;4.00;2.70;;;;;;;19.29;58.02;100250.50;5061968;28;20465;-65
2022/04/26 12:10:02;;;;;;;5.10;2.57;;;;;;;19.28;58.14;100257.44;5071529;28;20224;-65
2022/04/26 12:12:29;;;;;;;3.57;2.10;;;;;;;19.28;57.90;100266.03;5071682;28;20361;-65
2022/04/26 12:14:55;;;;;;;3.10;2.10;;;;;;;19.26;58.09;100271.28;5053161;28;20278;-65
2022/04/26 12:17:29;;;;;;;3.40;2.23;;;;;;;19.28;57.98;100274.63;5053462;28;21236;-65
2022/04/26 12:19:54;;;;;;;3.10;2.27;;;;;;;19.28;57.96;100283.19;5071654;28;20195;-65
2022/04/26 12:22:25;;;;;;;7.13;2.30;;;;;;;19.27;58.06;100278.66;5053731;28;20444;-65
2022/04/26 12:24:51;;;;;;;4.07;2.33;;;;;;;19.27;58.13;100275.81;5071166;28;20229;-65
2022/04/26 12:27:19;;;;;;;3.60;2.40;;;;;;;19.26;58.28;100281.94;5053857;28;20888;-65
2022/04/26 12:29:48;;;;;;;4.10;2.07;;;;;;;19.28;58.08;100286.06;5071014;28;20448;-65
2022/04/26 12:32:18;;;;;;;2.90;2.37;;;;;;;19.29;58.00;100281.16;5036962;28;20824;-65
2022/04/26 12:34:48;;;;;;;3.80;2.03;;;;;;;19.30;58.09;100271.34;5071134;28;20911;-65
2022/04/26 12:37:20;;;;;;;3.77;2.40;;;;;;;19.30;58.07;100266.47;5071210;28;20524;-65
2022/04/26 12:39:50;;;;;;;2.63;2.03;;;;;;;19.29;58.12;100267.69;5071140;28;20502;-65
2022/04/26 12:42:28;;;;;;;3.13;2.27;;;;;;;19.31;57.92;100279.56;5071189;28;20896;-65
2022/04/26 12:44:57;;;;;;;4.00;2.30;;;;;;;19.32;58.10;100274.66;5055061;28;20496;-65
2022/04/26 12:50:35;;;;;;;3.97;2.30;;;;;;;19.29;58.36;100278.28;5036970;28;20425;-65
2022/04/26 12:53:02;;;;;;;3.10;2.30;;;;;;;19.28;58.27;100286.06;5054859;28;20409;-65
2022/04/26 12:55:42;;;;;;;2.97;1.93;;;;;;;19.28;58.14;100286.06;5071257;28;20781;-65
2022/04/26 12:58:17;;;;;;;3.60;2.50;;;;;;;19.28;57.97;100280.34;5071187;28;20432;-65
2022/04/26 13:00:47;;;;;;;2.90;2.00;;;;;;;19.30;57.92;100282.78;5071171;28;20542;-65
2022/04/26 13:03:17;;;;;;;2.83;2.03;;;;;;;19.27;58.29;100278.66;5053435;28;20828;-65
2022/04/26 13:05:45;;;;;;;6.33;2.77;;;;;;;19.30;58.20;100280.78;5053264;28;20470;-66
2022/04/26 13:08:15;;;;;;;3.47;2.07;;;;;;;19.28;58.10;100271.75;5083819;28;20522;-65
2022/04/26 13:10:40;;;;;;;3.10;1.90;;;;;;;19.29;58.02;100276.25;5091282;28;20409;-65
2022/04/26 13:13:06;;;;;;;3.77;2.10;;;;;;;19.29;57.86;100270.53;5056917;28;20766;-65
2022/04/26 13:15:32;;;;;;;4.90;2.30;;;;;;;19.28;58.53;100271.75;5073019;28;20204;-65
2022/04/26 13:17:59;;;;;;;3.13;2.13;;;;;;;19.30;58.04;100268.47;5092712;28;20179;-65
2022/04/26 13:20:24;;;;;;;3.17;2.03;;;;;;;19.29;58.17;100264.81;5094689;28;20229;-65
2022/04/26 13:22:50;;;;;;;2.37;1.73;;;;;;;19.32;57.91;100257.50;5091131;28;20428;-65
2022/04/26 13:25:15;;;;;;;3.00;2.10;;;;;;;19.33;57.93;100259.13;5094701;28;20171;-65
2022/04/26 13:27:41;;;;;;;3.03;2.10;;;;;;;19.31;58.00;100261.56;5094618;28;20178;-65
2022/04/26 13:30:07;;;;;;;3.27;2.27;;;;;;;19.32;58.23;100258.28;5094468;28;20211;-65
2022/04/26 13:32:32;;;;;;;3.40;2.20;;;;;;;19.34;58.21;100252.19;5081958;28;20183;-65
2022/04/26 13:34:58;;;;;;;3.50;2.40;;;;;;;19.33;57.93;100259.13;5072751;28;20441;-65
2022/04/26 13:37:24;;;;;;;3.27;2.10;;;;;;;19.35;57.76;100257.53;5092147;28;20237;-65
2022/04/26 13:39:50;;;;;;;2.83;2.13;;;;;;;19.35;57.84;100266.13;5092977;28;20675;-65
2022/04/26 13:42:16;;;;;;;2.90;2.20;;;;;;;19.38;57.79;100265.34;5092008;28;20261;-65
2022/04/26 13:44:41;;;;;;;3.83;2.00;;;;;;;19.41;57.58;100258.84;5090190;28;20730;-65
2022/04/26 13:47:08;;;;;;;3.33;2.10;;;;;;;19.40;57.56;100247.75;5092609;28;20290;-65
2022/04/26 13:49:34;;;;;;;3.23;2.50;;;;;;;19.42;57.74;100246.16;5094218;28;20860;-65
2022/04/26 13:52:03;;;;;;;4.63;1.77;;;;;;;19.42;57.75;100245.34;5093959;28;20424;-65
2022/04/26 13:54:28;;;;;;;3.70;2.10;;;;;;;19.43;57.62;100242.13;5093724;28;20421;-66
2022/04/26 13:56:54;;;;;;;3.90;2.00;;;;;;;19.43;57.54;100247.00;5093692;28;20417;-66
2022/04/26 13:59:22;;;;;;;5.00;2.10;;;;;;;19.43;57.78;100242.13;5093889;28;20188;-65
2022/04/26 14:01:48;;;;;;;2.30;1.60;;;;;;;19.44;57.73;100249.47;5093918;28;20444;-65
2022/04/26 14:04:14;;;;;;;3.90;2.63;;;;;;;19.45;57.58;100253.16;5093985;28;20919;-65
2022/04/26 14:06:40;;;;;;;3.10;2.07;;;;;;;19.44;57.57;100258.06;5089860;28;20495;-65
2022/04/26 14:09:05;;;;;;;3.40;2.13;;;;;;;19.39;57.85;100266.16;5075570;28;20727;-65
2022/04/26 14:11:31;;;;;;;2.67;1.97;;;;;;;19.39;57.71;100260.44;5093633;28;20178;-65
2022/04/26 14:22:09;;;;;;;2.63;1.90;;;;;;;19.35;57.97;100248.09;5093292;28;20438;-65
2022/04/26 14:24:34;;;;;;;4.90;2.30;;;;;;;19.35;58.07;100250.97;5093382;28;20915;-65
2022/04/26 14:27:01;;;;;;;2.63;1.80;;;;;;;19.34;58.03;100249.31;5092930;28;20170;-65
2022/04/26 14:29:27;;;;;;;2.87;1.83;;;;;;;19.33;58.07;100248.53;5093059;28;20216;-65
2022/04/26 14:31:52;;;;;;;2.50;1.93;;;;;;;19.32;57.97;100243.97;5093137;28;20423;-65
2022/04/26 14:34:18;;;;;;;3.27;2.27;;;;;;;19.31;58.14;100253.78;5093366;28;20398;-65
2022/04/26 14:36:43;;;;;;;3.67;1.90;;;;;;;19.31;58.36;100244.41;5078989;28;20190;-65
2022/04/26 14:39:09;;;;;;;3.00;1.87;;;;;;;19.30;58.35;100246.41;5079216;28;20190;-65
2022/04/26 14:41:34;;;;;;;2.43;1.77;;;;;;;19.30;58.18;100254.16;5074403;28;20213;-65
2022/04/26 14:44:00;;;;;;;3.70;1.90;;;;;;;19.29;58.29;100261.94;5093162;28;20189;-65
2022/04/26 14:46:28;;;;;;;4.37;2.10;;;;;;;19.30;58.24;100282.78;5058233;28;20566;-65
2022/04/26 14:48:54;;;;;;;2.37;1.87;;;;;;;19.31;58.16;100296.72;5093460;28;20159;-65
2022/04/26 14:51:19;;;;;;;3.13;2.10;;;;;;;19.31;58.16;100304.50;5093257;28;20416;-65
2022/04/26 14:53:45;;;;;;;2.90;2.00;;;;;;;19.30;58.27;100322.88;5093002;28;20228;-65
2022/04/26 14:56:11;;;;;;;2.97;2.00;;;;;;;19.31;58.26;100330.28;5074799;28;20182;-65
2022/04/26 14:58:36;;;;;;;2.57;1.87;;;;;;;19.31;58.25;100347.44;5058476;28;20546;-65
2022/04/26 15:01:01;;;;;;;2.57;1.87;;;;;;;19.29;58.24;100355.56;5092522;28;20680;-65
2022/04/26 15:03:30;;;;;;;2.97;1.83;;;;;;;19.28;58.35;100360.50;5074740;28;20586;-65
2022/04/26 15:05:55;;;;;;;3.00;2.40;;;;;;;19.29;58.30;100341.25;5091000;28;20182;-65
2022/04/26 15:11:04;;;;;;;3.03;1.83;;;;;;;19.25;58.34;100332.63;5092488;28;20213;-65
2022/04/26 15:18:58;;;;;;;3.00;1.97;;;;;;;19.29;58.16;100330.66;5075540;28;20902;-65
2022/04/26 15:21:24;;;;;;;3.77;2.10;;;;;;;19.29;58.21;100327.78;5090657;28;20452;-65
2022/04/26 15:23:50;;;;;;;2.80;1.90;;;;;;;19.27;58.33;100321.59;5090984;28;20177;-65
2022/04/26 15:26:15;;;;;;;2.83;1.97;;;;;;;19.28;58.18;100313.84;5089024;28;20227;-65
2022/04/26 15:28:41;;;;;;;2.60;1.90;;;;;;;19.29;58.28;100324.09;5052847;28;20413;-65
2022/04/26 15:31:07;;;;;;;2.40;1.70;;;;;;;19.28;58.10;100323.28;5042258;28;20189;-66
2022/04/26 15:33:32;;;;;;;3.03;2.30;;;;;;;19.29;58.06;100324.94;5072512;28;20206;-65
2022/04/26 15:35:58;;;;;;;2.53;1.93;;;;;;;19.28;58.22;100325.31;5078826;28;20428;-65